Time;durP1;ratioP1;P1;durP2;ratioP2;P2;SDS_P1;SDS_P2;PMS_P1;PMS_P2;Temp;Humidity;BMP_temperature;BMP_pressure;BME280_temperature;BME280_humidity;BME280_pressure;Samples;Min_cycle;Max_cycle;Signal;HPM_P1;HPM_P2
2024/01/02 00:04:25;;;;;;;2.40;2.20;;;;;;;9.82;45.69;98910.16;10372707;28;20235;-37
2024/01/02 00:09:27;;;;;;;2.53;2.23;;;;;;;8.72;46.45;99081.50;10363627;28;20238;-35
2024/01/02 00:14:29;;;;;;;2.40;2.20;;;;;;;8.56;46.23;99132.41;10373735;28;20651;-36
2024/01/02 00:19:30;;;;;;;4.30;2.50;;;;;;;9.16;46.22;98971.09;10365331;28;20242;-36
2024/01/02 00:24:32;;;;;;;2.70;2.03;;;;;;;9.22;46.21;98934.78;10333812;28;20240;-35
2024/01/02 00:29:34;;;;;;;1.97;1.80;;;;;;;9.23;45.95;98941.78;10327720;28;20307;-36
2024/01/02 00:34:36;;;;;;;2.00;1.90;;;;;;;9.44;45.14;99004.13;10340761;28;20243;-36
2024/01/02 00:39:38;;;;;;;1.90;1.80;;;;;;;8.37;46.88;98958.69;10339159;28;20322;-36
2024/01/02 00:44:40;;;;;;;3.40;2.27;;;;;;;9.01;46.13;98949.00;10325323;28;20245;-36
2024/01/02 00:49:41;;;;;;;2.10;2.00;;;;;;;9.32;46.46;98835.63;10327529;28;20219;-36
2024/01/02 00:54:43;;;;;;;2.87;2.40;;;;;;;9.82;45.46;98897.66;10339734;28;20317;-36
2024/01/02 00:59:45;;;;;;;2.83;2.73;;;;;;;9.82;45.15;98923.53;10356825;28;20796;-35
2024/01/02 01:04:46;;;;;;;3.93;2.40;;;;;;;10.97;43.74;98836.00;10325091;28;20781;-35
2024/01/02 01:09:48;;;;;;;2.40;2.20;;;;;;;9.32;44.98;99086.59;10367085;28;20218;-34
2024/01/02 01:14:50;;;;;;;2.10;2.00;;;;;;;9.36;45.81;98989.88;10348201;28;20321;-34
2024/01/02 01:19:51;;;;;;;2.17;1.97;;;;;;;10.25;45.01;98928.63;10349884;28;20243;-36
2024/01/02 01:24:53;;;;;;;2.07;1.87;;;;;;;10.33;45.24;98905.19;10322714;28;20243;-36
2024/01/02 01:29:55;;;;;;;3.50;1.90;;;;;;;10.81;44.20;98964.91;10339166;28;20234;-37
2024/01/02 01:34:57;;;;;;;1.70;1.60;;;;;;;9.91;46.00;98890.31;10354655;28;20362;-36
2024/01/02 01:39:58;;;;;;;3.57;2.20;;;;;;;9.77;45.88;98958.88;10330477;28;20233;-35
2024/01/02 01:45:00;;;;;;;1.77;1.67;;;;;;;10.46;45.27;98860.75;10360733;28;20237;-35
2024/01/02 01:50:03;;;;;;;2.00;1.90;;;;;;;9.16;47.30;98887.50;10336274;28;20613;-35
2024/01/02 01:55:06;;;;;;;2.37;1.93;;;;;;;9.21;47.04;98976.66;10352843;28;20232;-36
2024/01/02 02:00:08;;;;;;;2.67;2.20;;;;;;;10.45;46.43;98782.38;10334548;28;20808;-36
2024/01/02 02:05:10;;;;;;;2.80;2.17;;;;;;;9.37;46.84;98991.53;10349246;28;20333;-36
2024/01/02 02:10:12;;;;;;;2.07;1.93;;;;;;;11.13;45.83;98753.59;10332041;28;20234;-37
2024/01/02 02:15:14;;;;;;;2.73;1.97;;;;;;;9.48;47.58;98917.25;10363632;28;20240;-34
2024/01/02 02:20:18;;;;;;;2.10;2.00;;;;;;;8.53;48.38;99036.78;10345165;28;20238;-34
2024/01/02 02:25:20;;;;;;;2.97;2.00;;;;;;;10.07;47.54;98780.34;10366435;28;20233;-34
2024/01/02 02:30:22;;;;;;;2.57;2.13;;;;;;;10.43;48.03;98671.28;10324241;28;20240;-34
2024/01/02 02:35:23;;;;;;;2.27;2.00;;;;;;;10.47;46.91;98801.69;10356395;28;20261;-35
2024/01/02 02:40:26;;;;;;;2.57;2.00;;;;;;;8.92;48.19;98966.19;10344002;28;20364;-35
2024/01/02 02:45:27;;;;;;;2.00;1.90;;;;;;;10.51;46.73;98847.56;10360635;28;20268;-37
2024/01/02 02:50:29;;;;;;;2.20;2.00;;;;;;;10.60;47.00;98781.31;10350281;28;20232;-35
2024/01/02 02:55:31;;;;;;;3.83;2.60;;;;;;;10.12;47.89;98747.63;10345909;28;20326;-35
2024/01/02 03:00:34;;;;;;;2.40;2.30;;;;;;;10.09;47.85;98762.25;10334414;28;20878;-34
2024/01/02 03:05:36;;;;;;;2.30;2.13;;;;;;;10.98;47.72;98639.56;10351909;28;20580;-34
2024/01/02 03:10:37;;;;;;;2.00;1.90;;;;;;;10.02;49.79;98613.59;10336975;28;20785;-36
2024/01/02 03:15:39;;;;;;;5.50;2.87;;;;;;;7.60;53.68;98661.03;10327127;28;20312;-33
2024/01/02 03:20:41;;;;;;;2.43;2.00;;;;;;;8.77;52.57;98504.75;10324323;28;20241;-35
2024/01/02 03:25:43;;;;;;;2.80;2.60;;;;;;;7.33;54.56;98608.38;10332995;28;20239;-34
2024/01/02 03:30:45;;;;;;;2.50;2.40;;;;;;;9.38;50.69;98475.22;10300930;28;20324;-35
2024/01/02 03:35:47;;;;;;;2.20;2.10;;;;;;;7.57;52.96;98694.16;10302062;28;20239;-36
2024/01/02 03:40:50;;;;;;;3.00;2.80;;;;;;;7.53;52.95;98692.91;10306031;28;20254;-34
2024/01/02 03:45:51;;;;;;;2.77;2.53;;;;;;;8.32;52.23;98582.59;10321803;28;20238;-36
2024/01/02 03:50:53;;;;;;;2.20;2.10;;;;;;;8.04;52.48;98625.31;10323444;28;20238;-36
2024/01/02 03:55:59;;;;;;;2.23;2.07;;;;;;;9.15;51.64;98464.16;10322989;28;20300;-35
2024/01/02 04:01:01;;;;;;;2.80;2.60;;;;;;;7.67;53.21;98657.38;10332050;28;20256;-39
2024/01/02 04:06:03;;;;;;;2.17;2.07;;;;;;;8.20;51.83;98664.13;10309939;28;20245;-36
2024/01/02 04:11:05;;;;;;;2.70;2.60;;;;;;;7.52;53.84;98600.75;10300479;28;20394;-35
2024/01/02 04:16:07;;;;;;;2.80;2.70;;;;;;;8.28;51.82;98639.97;10327825;28;20391;-36
2024/01/02 04:21:08;;;;;;;2.00;1.90;;;;;;;8.08;52.60;98531.47;10331442;28;20269;-36
2024/01/02 04:26:10;;;;;;;2.13;2.03;;;;;;;7.54;52.95;98651.94;10328416;28;20289;-36
2024/01/02 04:31:12;;;;;;;2.30;2.20;;;;;;;8.70;53.27;98354.59;10312877;28;20324;-35
2024/01/02 04:36:14;;;;;;;2.70;2.50;;;;;;;8.88;51.88;98442.84;10326407;28;20786;-36
2024/01/02 04:41:15;;;;;;;2.50;2.40;;;;;;;8.05;52.84;98592.28;10330689;28;20269;-36
2024/01/02 04:46:17;;;;;;;2.33;2.23;;;;;;;9.37;51.85;98390.00;10328590;28;20234;-36
2024/01/02 04:51:19;;;;;;;4.63;2.43;;;;;;;8.71;51.37;98615.75;10328679;28;20244;-36
2024/01/02 04:56:21;;;;;;;2.83;2.63;;;;;;;9.39;50.71;98478.69;10330375;28;20762;-36
2024/01/02 05:01:23;;;;;;;3.37;2.30;;;;;;;8.47;52.83;98479.28;10327762;28;21034;-36
2024/01/02 05:06:24;;;;;;;1.80;1.70;;;;;;;9.73;50.44;98447.38;10322732;28;20233;-36
2024/01/02 05:11:26;;;;;;;2.20;2.10;;;;;;;8.83;51.69;98448.75;10323036;28;20235;-35
2024/01/02 05:16:28;;;;;;;2.60;2.40;;;;;;;9.08;51.77;98343.25;10324309;28;20622;-35
2024/01/02 05:21:30;;;;;;;1.90;1.80;;;;;;;8.62;52.55;98463.13;10322798;28;20231;-35
2024/01/02 05:26:32;;;;;;;2.37;2.27;;;;;;;9.45;51.67;98292.78;10339021;28;20389;-35
2024/01/02 05:31:34;;;;;;;2.60;2.50;;;;;;;8.44;53.40;98325.06;10327270;28;20502;-36
2024/01/02 05:36:35;;;;;;;2.30;2.20;;;;;;;9.10;52.44;98318.00;10325679;28;20233;-36
2024/01/02 05:41:37;;;;;;;2.20;2.10;;;;;;;8.19;54.14;98359.50;10334441;28;20320;-36
2024/01/02 05:46:39;;;;;;;2.27;2.13;;;;;;;8.61;52.45;98426.00;10319745;28;20743;-36
2024/01/02 05:51:40;;;;;;;2.77;2.60;;;;;;;9.43;51.92;98278.84;10332838;28;20249;-35
2024/01/02 05:56:43;;;;;;;1.70;1.60;;;;;;;8.24;54.23;98321.59;10324976;28;20330;-36
2024/01/02 06:01:45;;;;;;;2.00;1.90;;;;;;;7.77;54.14;98477.81;10330317;28;20353;-36
2024/01/02 06:06:46;;;;;;;2.00;1.90;;;;;;;10.24;51.47;98230.00;10324137;28;20332;-36
2024/01/02 06:11:48;;;;;;;2.40;2.30;;;;;;;9.33;52.22;98308.66;10324466;28;20273;-36
2024/01/02 06:16:50;;;;;;;2.10;2.00;;;;;;;10.15;51.48;98229.44;10321460;28;20897;-37
2024/01/02 06:21:51;;;;;;;2.40;2.30;;;;;;;8.90;52.15;98493.31;10312062;28;20233;-35
2024/01/02 06:26:53;;;;;;;2.20;2.10;;;;;;;8.77;52.25;98486.91;10333818;28;20272;-35
2024/01/02 06:31:55;;;;;;;2.50;2.40;;;;;;;8.73;53.31;98408.34;10321598;28;20919;-35
2024/01/02 06:36:57;;;;;;;2.20;2.10;;;;;;;10.28;50.87;98351.50;10330977;28;20240;-35
2024/01/02 06:41:58;;;;;;;1.90;1.80;;;;;;;11.33;49.43;98290.97;10324401;28;20225;-36
2024/01/02 06:47:00;;;;;;;1.57;1.53;;;;;;;10.65;50.19;98361.50;10324727;28;20790;-35
2024/01/02 06:52:03;;;;;;;2.10;2.00;;;;;;;10.38;51.23;98360.88;10323454;28;20245;-36
2024/01/02 06:57:04;;;;;;;1.97;1.87;;;;;;;11.07;49.88;98405.38;10331926;28;20247;-36
2024/01/02 07:02:06;;;;;;;2.37;2.27;;;;;;;9.74;51.36;98548.69;10327400;28;20316;-36
2024/01/02 07:07:09;;;;;;;2.00;1.90;;;;;;;9.84;52.21;98438.75;10329778;28;20289;-35
2024/01/02 07:12:10;;;;;;;1.60;1.60;;;;;;;7.49;55.25;98539.91;10318806;28;20242;-35
2024/01/02 07:17:12;;;;;;;1.80;1.70;;;;;;;10.69;50.32;98505.28;10331956;28;20229;-35
2024/01/02 07:22:14;;;;;;;2.20;2.10;;;;;;;10.97;49.84;98522.03;10321151;28;20329;-35
2024/01/02 07:27:16;;;;;;;2.30;2.20;;;;;;;10.68;50.37;98530.41;10330703;28;20328;-35
2024/01/02 07:32:18;;;;;;;1.80;1.70;;;;;;;10.37;50.68;98565.97;10324792;28;20436;-35
2024/01/02 07:37:20;;;;;;;2.53;1.83;;;;;;;11.04;49.67;98560.25;10324790;28;20663;-36
2024/01/02 07:42:21;;;;;;;1.90;1.80;;;;;;;11.53;50.10;98437.25;10324434;28;20285;-36
2024/01/02 07:47:25;;;;;;;2.27;2.17;;;;;;;9.48;51.94;98672.38;10329687;28;20242;-36
2024/01/02 07:52:26;;;;;;;1.90;1.80;;;;;;;10.24;52.49;98446.56;10333311;28;20266;-35
2024/01/02 07:57:28;;;;;;;2.30;2.20;;;;;;;10.56;51.17;98524.09;10330398;28;20237;-36
2024/01/02 08:02:31;;;;;;;2.00;1.90;;;;;;;8.85;53.03;98627.28;10334554;28;20289;-35
2024/01/02 08:07:32;;;;;;;1.90;1.80;;;;;;;11.15;50.11;98556.88;10314698;28;20241;-35
2024/01/02 08:12:34;;;;;;;1.83;1.73;;;;;;;10.01;52.37;98484.50;10336693;28;20299;-35
2024/01/02 08:17:36;;;;;;;2.17;2.07;;;;;;;11.56;49.92;98475.13;10327750;28;20298;-36
2024/01/02 08:22:39;;;;;;;2.00;1.90;;;;;;;9.04;53.36;98625.69;10331322;28;20233;-35
2024/01/02 08:27:41;;;;;;;2.13;2.03;;;;;;;10.06;53.17;98482.00;10334516;28;20324;-36
2024/01/02 08:32:43;;;;;;;2.00;1.90;;;;;;;10.55;51.99;98524.34;10332546;28;20229;-35
2024/01/02 08:37:45;;;;;;;2.50;2.40;;;;;;;10.16;53.10;98460.16;10330123;28;20579;-35
2024/01/02 08:42:46;;;;;;;1.90;1.80;;;;;;;11.10;50.01;98572.75;10338033;28;20743;-36
2024/01/02 08:47:49;;;;;;;2.30;2.20;;;;;;;11.45;51.10;98420.41;10310869;28;20289;-35
2024/01/02 08:52:52;;;;;;;1.87;1.77;;;;;;;11.82;49.63;98518.78;10333746;28;20297;-35
2024/01/02 08:57:54;;;;;;;1.80;1.70;;;;;;;9.72;52.53;98627.38;10328649;28;20531;-35
2024/01/02 09:02:55;;;;;;;2.57;2.37;;;;;;;11.91;49.34;98536.22;10331821;28;20333;-35
2024/01/02 09:07:59;;;;;;;1.70;1.70;;;;;;;9.93;52.62;98599.63;10309635;28;20259;-35
2024/01/02 09:13:02;;;;;;;1.80;1.70;;;;;;;11.88;50.57;98515.22;10335366;28;20264;-35
2024/01/02 09:18:04;;;;;;;2.00;1.70;;;;;;;11.41;51.40;98486.19;10320658;28;20606;-35
2024/01/02 09:23:06;;;;;;;1.57;1.57;;;;;;;9.74;52.54;98652.06;10331204;28;20245;-36
2024/01/02 09:28:12;;;;;;;2.60;2.40;;;;;;;12.21;50.04;98499.75;10321257;28;20677;-35
2024/01/02 09:33:20;;;;;;;2.20;2.10;;;;;;;12.07;49.37;98599.13;10324587;28;20495;-35
2024/01/02 09:38:22;;;;;;;1.80;1.80;;;;;;;12.01;50.97;98508.84;10320861;28;20246;-35
2024/01/02 09:43:46;;;;;;;2.17;2.07;;;;;;;12.00;49.73;98558.16;10330615;28;20775;-35
2024/01/02 09:49:03;;;;;;;2.30;2.20;;;;;;;12.41;48.05;98714.91;10317513;28;20359;-35
2024/01/02 09:54:14;;;;;;;2.10;2.00;;;;;;;11.25;51.72;98534.97;10320355;28;20265;-36
2024/01/02 09:59:46;;;;;;;2.00;1.90;;;;;;;10.80;52.02;98568.03;10319889;28;20226;-36
2024/01/02 10:04:59;;;;;;;2.30;2.10;;;;;;;10.15;53.46;98624.25;10316527;28;20308;-38
2024/01/02 10:10:17;;;;;;;2.80;2.60;;;;;;;13.37;47.74;98524.47;10334519;28;20779;-37
2024/01/02 10:15:31;;;;;;;2.33;2.13;;;;;;;12.88;48.96;98516.56;10312220;28;20490;-39
2024/01/02 10:21:06;;;;;;;2.30;2.20;;;;;;;11.52;50.11;98666.00;10327498;28;20366;-39
2024/01/02 10:26:09;;;;;;;2.03;1.90;;;;;;;11.23;51.58;98519.09;10316175;28;20245;-42
2024/01/02 10:31:27;;;;;;;2.27;2.07;;;;;;;11.69;50.62;98592.06;10317532;28;20282;-41
2024/01/02 10:36:31;;;;;;;2.10;2.00;;;;;;;11.93;50.44;98533.28;10318636;28;20610;-40
2024/01/02 10:41:41;;;;;;;2.70;2.50;;;;;;;12.91;48.51;98502.69;10322714;28;20340;-40
2024/01/02 10:46:59;;;;;;;2.53;2.43;;;;;;;12.06;49.20;98612.75;10319755;28;20362;-41
2024/01/02 10:52:12;;;;;;;2.33;2.23;;;;;;;12.03;49.91;98517.50;10319802;28;20244;-41
2024/01/02 10:57:35;;;;;;;1.93;1.83;;;;;;;12.67;49.16;98458.03;10310450;28;20233;-41
2024/01/02 11:06:26;;;;;;;2.23;2.03;;;;;;;10.04;54.67;98470.72;10470097;27;20765;-68
2024/01/02 11:11:29;;;;;;;2.00;1.90;;;;;;;9.89;55.34;98376.66;10407900;28;20243;-70
2024/01/02 11:16:33;;;;;;;2.00;1.90;;;;;;;9.22;55.80;98475.66;10410450;28;20292;-70
2024/01/02 11:21:54;;;;;;;2.20;2.10;;;;;;;10.12;55.77;98298.56;10438624;28;20285;-70
2024/01/02 11:27:00;;;;;;;2.00;1.90;;;;;;;11.54;51.96;98367.38;10410616;28;20243;-70
2024/01/02 11:32:09;;;;;;;2.10;2.00;;;;;;;11.11;53.20;98367.47;10418069;28;20235;-69
2024/01/02 11:37:16;;;;;;;2.20;2.10;;;;;;;10.20;54.12;98383.84;10410574;28;20426;-70
2024/01/02 11:42:24;;;;;;;2.13;2.03;;;;;;;8.82;56.07;98491.63;10411680;28;20751;-70
2024/01/02 11:47:50;;;;;;;2.07;1.90;;;;;;;10.17;54.53;98357.53;10399472;28;20364;-70
2024/01/02 11:53:02;;;;;;;2.47;2.27;;;;;;;11.96;51.69;98321.06;10404974;28;20275;-70
2024/01/02 11:58:40;;;;;;;2.60;2.40;;;;;;;11.75;52.53;98312.50;10390760;28;20523;-70
2024/01/02 12:04:11;;;;;;;2.20;2.10;;;;;;;10.01;54.94;98344.72;10408696;28;20883;-70
2024/01/02 12:09:17;;;;;;;2.50;2.30;;;;;;;10.83;53.67;98296.50;10404364;28;20262;-69
2024/01/02 12:14:25;;;;;;;2.20;2.10;;;;;;;10.80;52.59;98465.53;10402876;28;20256;-70
2024/01/02 12:19:29;;;;;;;2.20;2.10;;;;;;;11.31;53.04;98263.63;10380397;28;20346;-71
2024/01/02 12:24:31;;;;;;;2.27;2.10;;;;;;;11.00;52.71;98401.13;10384602;28;20327;-70
2024/01/02 12:29:57;;;;;;;2.40;2.30;;;;;;;11.26;52.37;98365.22;10383488;28;20311;-70
2024/01/02 12:35:07;;;;;;;2.23;2.10;;;;;;;10.73;53.46;98360.38;10369413;28;20724;-70
2024/01/02 12:40:11;;;;;;;2.47;2.27;;;;;;;11.47;52.35;98310.38;10386335;28;20690;-71
2024/01/02 12:45:21;;;;;;;2.27;2.17;;;;;;;11.33;52.92;98274.09;10372635;28;20237;-69
2024/01/02 12:50:24;;;;;;;2.20;2.10;;;;;;;10.51;54.72;98265.31;10385574;28;20228;-70
2024/01/02 12:55:28;;;;;;;2.40;2.30;;;;;;;10.58;54.47;98256.41;10374855;28;20288;-69
2024/01/02 13:00:32;;;;;;;2.80;2.00;;;;;;;10.22;56.22;98202.66;10384579;28;20644;-70
2024/01/02 13:05:35;;;;;;;1.70;1.70;;;;;;;9.00;57.52;98330.97;10403433;28;20236;-69
2024/01/02 13:10:37;;;;;;;2.80;1.90;;;;;;;9.30;56.07;98333.94;10419358;28;20239;-71
2024/01/02 13:15:40;;;;;;;2.80;2.53;;;;;;;10.57;53.43;98367.94;10378966;28;20252;-70
2024/01/02 13:20:42;;;;;;;2.67;2.47;;;;;;;11.43;53.63;98180.63;10381992;28;20232;-70
2024/01/02 13:25:44;;;;;;;2.20;2.10;;;;;;;12.23;52.12;98168.59;10387644;28;20347;-70
2024/01/02 13:30:47;;;;;;;2.00;1.90;;;;;;;10.73;54.08;98258.72;10393562;28;20264;-69
2024/01/02 13:36:05;;;;;;;2.50;2.40;;;;;;;11.05;53.15;98324.47;10378033;28;20238;-70
2024/01/02 13:41:08;;;;;;;2.13;2.03;;;;;;;10.37;53.89;98365.41;10385371;28;20323;-70
2024/01/02 13:46:12;;;;;;;2.00;1.90;;;;;;;10.87;54.27;98228.13;10374685;28;20237;-69
2024/01/02 13:51:14;;;;;;;2.03;1.93;;;;;;;10.80;54.35;98204.13;10374315;28;20251;-70
2024/01/02 13:56:16;;;;;;;2.17;2.07;;;;;;;10.20;55.62;98215.44;10372493;28;20697;-69
2024/01/02 14:01:38;;;;;;;2.50;2.30;;;;;;;11.53;52.52;98271.97;10382319;28;20229;-70
2024/01/02 14:06:40;;;;;;;2.33;2.20;;;;;;;11.15;54.10;98234.78;10422417;28;20262;-70
2024/01/02 14:12:01;;;;;;;2.30;2.20;;;;;;;11.07;52.55;98394.66;10426061;28;20223;-71
2024/01/02 14:17:04;;;;;;;2.10;2.00;;;;;;;11.87;52.51;98216.03;10387856;28;20604;-71
2024/01/02 14:22:28;;;;;;;2.50;2.30;;;;;;;10.48;53.81;98385.31;10411004;28;20236;-70
2024/01/02 14:28:02;;;;;;;2.10;2.00;;;;;;;11.24;54.60;98195.97;10392471;28;20254;-71
2024/01/02 14:33:31;;;;;;;2.20;2.10;;;;;;;12.47;51.86;98145.28;10373715;28;20274;-71
2024/01/02 14:38:57;;;;;;;2.97;2.77;;;;;;;11.95;52.25;98237.16;10366456;28;20724;-69
2024/01/02 14:44:19;;;;;;;2.20;2.10;;;;;;;12.36;51.19;98221.19;10370491;28;20696;-71
2024/01/02 14:49:29;;;;;;;1.97;1.87;;;;;;;11.11;53.76;98174.72;10406076;28;20313;-71
2024/01/02 14:54:59;;;;;;;2.27;2.17;;;;;;;10.69;53.32;98355.47;9511327;28;10000186;-74
2024/01/02 15:00:05;;;;;;;2.20;2.10;;;;;;;11.78;53.15;98161.97;10408391;28;20236;-70
2024/01/02 15:05:51;;;;;;;2.70;2.50;;;;;;;11.25;53.74;98194.88;10404201;28;20240;-67
2024/01/02 15:11:09;;;;;;;2.60;2.40;;;;;;;11.48;53.80;98151.28;10393780;28;20236;-69
2024/01/02 15:16:36;;;;;;;2.50;2.23;;;;;;;10.92;54.08;98196.16;10406188;28;20681;-70
2024/01/02 15:21:51;;;;;;;2.73;2.53;;;;;;;11.85;52.88;98124.34;10385894;28;20693;-69
2024/01/02 15:26:56;;;;;;;2.07;1.97;;;;;;;12.25;52.08;98165.69;10389533;28;20318;-70
2024/01/02 15:32:09;;;;;;;2.23;2.10;;;;;;;11.32;54.39;98066.25;10408731;28;20691;-70
2024/01/02 15:37:21;;;;;;;2.40;2.30;;;;;;;11.04;54.06;98154.19;10408651;28;20261;-71
2024/01/02 15:42:36;;;;;;;2.13;2.03;;;;;;;10.55;56.43;98049.06;10413558;28;20655;-66
2024/01/02 15:47:58;;;;;;;2.30;2.20;;;;;;;11.41;53.70;98060.34;10401160;28;20239;-69
2024/01/02 15:53:14;;;;;;;2.10;2.00;;;;;;;10.04;56.10;98202.63;9497497;28;10000793;-71
2024/01/02 15:58:26;;;;;;;2.10;2.00;;;;;;;8.95;57.38;98246.22;10388998;28;20239;-67
2024/01/02 16:04:12;;;;;;;2.20;2.10;;;;;;;8.81;58.72;98152.06;10317836;23;20241;-34
2024/01/02 16:09:48;;;;;;;3.27;2.97;;;;;;;11.24;53.05;98159.28;10275250;28;20234;-34
2024/01/02 16:15:44;;;;;;;1.83;1.80;;;;;;;11.35;53.68;98034.47;10310084;28;20265;-35
2024/01/02 16:21:04;;;;;;;1.97;1.90;;;;;;;10.64;55.50;97970.13;10287878;28;20617;-35
2024/01/02 16:26:31;;;;;;;2.33;2.13;;;;;;;9.02;57.68;98142.13;10302829;28;20281;-35
2024/01/02 16:32:14;;;;;;;1.80;1.80;;;;;;;9.78;57.38;97977.41;10311227;28;20414;-35
2024/01/02 16:37:43;;;;;;;2.30;2.20;;;;;;;11.11;54.62;98003.41;10299446;28;20244;-35
2024/01/02 16:42:45;;;;;;;5.77;2.63;;;;;;;9.63;55.72;98161.22;10311754;28;20236;-36
2024/01/02 16:47:48;;;;;;;2.40;2.30;;;;;;;11.81;53.32;97960.53;10309900;28;20233;-36
2024/01/02 16:52:53;;;;;;;2.60;2.50;;;;;;;11.88;52.14;98139.97;10317203;28;20633;-35
2024/01/02 16:57:55;;;;;;;2.23;2.13;;;;;;;11.61;53.97;97966.25;10305666;28;20234;-35
2024/01/02 17:02:57;;;;;;;1.77;1.77;;;;;;;9.30;56.97;98152.44;10314676;28;20545;-36
2024/01/02 17:08:01;;;;;;;2.40;2.27;;;;;;;11.79;53.00;97992.09;10308808;28;20241;-35
2024/01/02 17:13:05;;;;;;;2.00;1.90;;;;;;;11.68;54.05;97955.44;10331212;28;20238;-35
2024/01/02 17:18:08;;;;;;;2.20;2.10;;;;;;;11.00;54.73;98000.47;10300625;28;20612;-35
2024/01/02 17:23:11;;;;;;;2.47;2.30;;;;;;;11.93;53.52;97955.13;10313031;28;20258;-35
2024/01/02 17:28:13;;;;;;;2.40;2.30;;;;;;;11.63;53.53;97995.50;10304506;28;20651;-34
2024/01/02 17:33:16;;;;;;;2.40;1.90;;;;;;;11.28;54.61;97966.84;10314062;28;20316;-35
2024/01/02 17:38:23;;;;;;;2.20;2.10;;;;;;;8.94;58.04;98129.03;10305522;28;20317;-35
2024/01/02 17:43:25;;;;;;;2.10;2.00;;;;;;;11.42;53.28;98075.38;10309519;28;20222;-35
2024/01/02 17:48:29;;;;;;;2.20;2.10;;;;;;;10.52;55.68;98007.53;10304338;28;20260;-35
2024/01/02 17:53:31;;;;;;;2.60;2.40;;;;;;;12.63;53.33;97840.50;10311454;28;20242;-35
2024/01/02 17:58:39;;;;;;;2.70;2.50;;;;;;;11.69;54.16;97965.06;10300848;28;20825;-35
2024/01/02 18:04:13;;;;;;;2.47;2.27;;;;;;;11.46;53.79;98067.69;10311271;28;20246;-36
2024/01/02 18:09:30;;;;;;;2.00;1.90;;;;;;;9.50;57.23;98085.53;10304590;28;20226;-35
2024/01/02 18:15:12;;;;;;;3.03;2.50;;;;;;;10.28;56.15;97977.22;10303850;28;20264;-35
2024/01/02 18:20:28;;;;;;;2.50;2.30;;;;;;;12.22;52.81;97906.88;10297043;28;20244;-35
2024/01/02 18:25:55;;;;;;;2.10;2.00;;;;;;;11.34;55.79;97890.09;10299966;28;20237;-35
2024/01/02 18:31:12;;;;;;;2.27;2.17;;;;;;;10.91;55.85;97921.56;10309515;28;20964;-34
2024/01/02 18:36:34;;;;;;;2.30;2.20;;;;;;;11.50;54.46;97987.69;10302856;28;20296;-35
2024/01/02 18:41:47;;;;;;;2.17;2.07;;;;;;;11.51;54.25;97979.41;10311418;28;20323;-36
2024/01/02 18:47:00;;;;;;;1.90;1.80;;;;;;;10.73;56.16;97985.84;10297675;28;20238;-35
2024/01/02 18:52:04;;;;;;;2.03;1.93;;;;;;;12.88;51.41;98016.44;10307373;28;20234;-35
2024/01/02 18:57:06;;;;;;;1.90;1.80;;;;;;;11.58;55.23;97918.47;10299585;28;20296;-35
2024/01/02 19:02:10;;;;;;;2.13;2.03;;;;;;;10.84;54.13;98076.88;10311494;28;20249;-35
2024/01/02 19:07:12;;;;;;;1.90;1.80;;;;;;;13.64;50.31;97954.19;10301347;28;20238;-35
2024/01/02 19:12:14;;;;;;;2.10;2.00;;;;;;;13.00;51.39;97994.88;10310779;28;20531;-35
2024/01/02 19:17:16;;;;;;;2.00;1.90;;;;;;;12.61;52.37;97992.09;10294153;28;20476;-35
2024/01/02 19:22:18;;;;;;;2.73;2.30;;;;;;;12.42;51.63;98136.28;10308734;28;20602;-34
2024/01/02 19:27:22;;;;;;;2.77;2.20;;;;;;;12.77;51.47;98030.72;10308651;28;20251;-35
2024/01/02 19:32:24;;;;;;;2.20;2.10;;;;;;;11.89;53.30;98044.28;10316773;28;20265;-35
2024/01/02 19:37:25;;;;;;;1.90;1.80;;;;;;;11.47;53.88;98063.94;10311512;28;20273;-36
2024/01/02 19:42:27;;;;;;;2.10;2.00;;;;;;;12.60;50.78;98184.44;10309563;28;20317;-35
2024/01/02 19:47:33;;;;;;;2.30;2.20;;;;;;;13.15;51.13;98034.59;10306802;28;20286;-36
2024/01/02 19:52:35;;;;;;;2.27;2.17;;;;;;;14.16;48.25;98128.59;10315403;28;20241;-35
2024/01/02 19:57:36;;;;;;;2.47;2.30;;;;;;;13.70;49.41;98070.63;10310748;28;20325;-35
2024/01/02 20:02:45;;;;;;;2.20;2.10;;;;;;;13.46;49.39;98063.59;10321735;28;20264;-35
2024/01/02 20:07:49;;;;;;;2.47;2.27;;;;;;;11.87;52.06;98065.94;10306078;28;20241;-35
2024/01/02 20:12:57;;;;;;;2.10;1.93;;;;;;;13.40;49.64;98043.06;10317159;28;20690;-35
2024/01/02 20:18:06;;;;;;;2.20;2.00;;;;;;;12.96;50.50;98026.78;10311023;28;20233;-35
2024/01/02 20:23:30;;;;;;;2.17;1.97;;;;;;;13.76;48.53;98010.53;10313370;28;20234;-35
2024/01/02 20:28:32;;;;;;;2.10;2.00;;;;;;;13.27;48.57;98070.22;10305101;28;20241;-36
2024/01/02 20:33:36;;;;;;;1.90;1.80;;;;;;;13.36;48.60;98059.91;10310940;28;20234;-35
2024/01/02 20:38:45;;;;;;;6.60;2.20;;;;;;;12.08;49.19;98160.22;10313874;28;20261;-35
2024/01/02 20:43:58;;;;;;;2.13;1.93;;;;;;;12.66;48.27;98145.94;10316752;28;20238;-36
2024/01/02 20:49:04;;;;;;;2.00;1.90;;;;;;;14.85;45.68;98034.97;10307128;28;20545;-36
2024/01/02 20:54:17;;;;;;;3.33;2.17;;;;;;;14.45;46.21;98069.22;10316551;28;21173;-35
2024/01/02 20:59:20;;;;;;;1.70;1.60;;;;;;;14.25;46.29;98107.47;10302841;28;20273;-36
2024/01/02 21:04:26;;;;;;;1.90;1.80;;;;;;;14.30;46.16;98093.25;10314517;28;20238;-34
2024/01/02 21:09:28;;;;;;;2.20;2.10;;;;;;;14.45;46.13;98053.09;10309268;28;20676;-35
2024/01/02 21:14:29;;;;;;;2.50;1.70;;;;;;;14.35;46.16;98074.50;10329779;28;20261;-35
2024/01/02 21:19:46;;;;;;;1.90;1.80;;;;;;;14.76;45.17;98116.16;10306124;28;20252;-36
2024/01/02 21:24:48;;;;;;;1.90;1.80;;;;;;;13.53;46.60;98148.59;10314901;28;20783;-35
2024/01/02 21:29:50;;;;;;;2.27;2.17;;;;;;;13.91;45.74;98180.09;10309884;28;20244;-35
2024/01/02 21:34:52;;;;;;;1.80;1.70;;;;;;;13.91;46.27;98094.06;10310982;28;20627;-35
2024/01/02 21:39:53;;;;;;;1.90;1.80;;;;;;;14.42;45.13;98098.53;10308360;28;20278;-35
2024/01/02 21:44:55;;;;;;;2.80;1.80;;;;;;;12.75;46.47;98232.25;10306571;28;20242;-36
2024/01/02 21:49:57;;;;;;;2.00;1.90;;;;;;;13.67;46.33;98070.06;10304864;28;20422;-35
2024/01/02 21:55:00;;;;;;;1.50;1.40;;;;;;;13.88;45.85;98046.16;10311199;28;20628;-36
2024/01/02 22:00:07;;;;;;;1.83;1.63;;;;;;;14.40;44.32;98125.69;10313787;28;20242;-36
2024/01/02 22:05:10;;;;;;;1.70;1.60;;;;;;;13.35;46.13;98168.47;10303617;28;20684;-35
2024/01/02 22:10:43;;;;;;;1.73;1.63;;;;;;;13.00;46.89;98123.75;10304080;28;20277;-34
2024/01/02 22:15:45;;;;;;;1.60;1.60;;;;;;;13.55;46.71;98039.81;10314821;23;20296;-69
2024/01/02 22:20:47;;;;;;;1.70;1.60;;;;;;;13.07;46.48;98140.53;10349643;28;20236;-70
2024/01/02 22:25:53;;;;;;;1.90;1.80;;;;;;;14.01;45.33;98131.84;10349075;28;20233;-69
2024/01/02 22:30:55;;;;;;;1.80;1.70;;;;;;;13.55;45.70;98184.09;10333622;28;20284;-69
2024/01/02 22:35:57;;;;;;;2.30;1.97;;;;;;;13.01;47.43;98162.94;10343149;28;20616;-70
2024/01/02 22:40:59;;;;;;;2.20;1.77;;;;;;;13.51;48.09;98068.22;10354596;28;20240;-69
2024/01/02 22:46:01;;;;;;;1.90;1.80;;;;;;;13.37;47.85;98080.38;10327531;28;20265;-70
2024/01/02 22:51:02;;;;;;;1.70;1.60;;;;;;;13.68;46.78;98111.19;10338671;28;20236;-70
2024/01/02 22:56:04;;;;;;;1.50;1.50;;;;;;;14.01;46.17;98145.31;10347998;28;20863;-70
2024/01/02 23:01:06;;;;;;;2.33;1.60;;;;;;;12.73;47.59;98183.38;10352475;28;20233;-70
2024/01/02 23:06:10;;;;;;;2.07;1.70;;;;;;;14.83;45.10;98078.28;10345330;28;20763;-70
2024/01/02 23:11:32;;;;;;;1.70;1.60;;;;;;;13.13;46.44;98225.50;10353024;28;20551;-71
2024/01/02 23:16:34;;;;;;;1.83;1.60;;;;;;;15.45;43.83;98124.63;10344763;28;20241;-70
2024/01/02 23:21:37;;;;;;;1.87;1.87;;;;;;;13.74;46.55;98139.78;10351563;28;20750;-71
2024/01/02 23:27:01;;;;;;;1.50;1.50;;;;;;;12.83;47.30;98215.78;10346091;28;20237;-71
2024/01/02 23:32:09;;;;;;;2.87;1.80;;;;;;;12.93;47.81;98242.03;10349534;28;20287;-70
2024/01/02 23:37:26;;;;;;;2.00;1.80;;;;;;;13.22;47.48;98127.38;10340977;28;20838;-71
2024/01/02 23:42:42;;;;;;;2.07;1.90;;;;;;;13.67;47.21;98141.84;10347462;28;20682;-71
2024/01/02 23:47:45;;;;;;;2.10;2.00;;;;;;;15.19;44.56;98100.16;10334992;28;20232;-70
2024/01/02 23:52:46;;;;;;;2.33;1.80;;;;;;;15.07;44.74;98145.31;10348057;28;20241;-70
2024/01/02 23:57:52;;;;;;;2.10;2.00;;;;;;;15.17;44.93;98090.69;10346890;28;20730;-70
